| time (UTC) | temp C | wind direction | speed KPH | gust KPH | rain 1hr cm | rain 24hr cm | rain mn cm | humidity % | barometer mb |
| 20260508151517 | 20 | 268 | 4.8 | 9.7 | 0.00 | 0.00 | 0.00 | 26 | 1010.0 |
| 20260508150021 | 20 | 276 | 3.2 | 9.7 | 0.00 | 0.00 | 0.00 | 26 | 1010.2 |
| 20260508144516 | 20 | 280 | 1.6 | 8.0 | 0.00 | 0.00 | 0.00 | 28 | 1010.2 |
| 20260508143015 | 21 | 304 | 0.0 | 4.8 | 0.00 | 0.00 | 0.00 | 25 | 1010.3 |
| 20260508141513 | 18 | 83 | 0.0 | 6.4 | 0.00 | 0.00 | 0.00 | 29 | 1010.4 |
| 20260508140007 | 17 | 85 | 3.2 | 8.0 | 0.00 | 0.00 | 0.00 | 31 | 1010.4 |
| 20260508134510 | 14 | 131 | 3.2 | 11.3 | 0.00 | 0.00 | 0.00 | 37 | 1010.3 |
| 20260508133003 | 11 | 145 | 4.8 | 9.7 | 0.00 | 0.00 | 0.00 | 43 | 1010.2 |
| 20260508131502 | 10 | 138 | 6.4 | 9.7 | 0.00 | 0.00 | 0.00 | 45 | 1010.2 |
| 20260508130002 | 9 | 152 | 6.4 | 9.7 | 0.00 | 0.00 | 0.00 | 45 | 1010.2 |
| 20260508124600 | 9 | 153 | 4.8 | 8.0 | 0.00 | 0.00 | 0.00 | 45 | 1010.3 |
| 20260508123059 | 9 | 145 | 3.2 | 9.7 | 0.00 | 0.00 | 0.00 | 46 | 1010.3 |
| 20260508121558 | 9 | 150 | 4.8 | 9.7 | 0.00 | 0.00 | 0.00 | 45 | 1010.1 |
| 20260508120056 | 9 | 141 | 1.6 | 8.0 | 0.00 | 0.00 | 0.00 | 45 | 1009.8 |
| 20260508114605 | 10 | 153 | 3.2 | 11.3 | 0.00 | 0.00 | 0.00 | 44 | 1009.7 |
| 20260508113057 | 10 | 138 | 4.8 | 8.0 | 0.00 | 0.00 | 0.00 | 43 | 1009.7 |
| 20260508111601 | 10 | 147 | 6.4 | 11.3 | 0.00 | 0.00 | 0.00 | 41 | 1009.7 |
| 20260508110048 | 10 | 149 | 6.4 | 11.3 | 0.00 | 0.00 | 0.00 | 42 | 1010.0 |
| 20260508104547 | 10 | 142 | 4.8 | 11.3 | 0.00 | 0.00 | 0.00 | 43 | 1010.1 |
| 20260508103046 | 10 | 133 | 6.4 | 9.7 | 0.00 | 0.00 | 0.00 | 43 | 1010.1 |
| 20260508101544 | 10 | 118 | 6.4 | 9.7 | 0.00 | 0.00 | 0.00 | 43 | 1010.1 |
| 20260508100042 | 11 | 148 | 4.8 | 12.9 | 0.00 | 0.00 | 0.00 | 41 | 1010.2 |
| 20260508094539 | 11 | 119 | 4.8 | 9.7 | 0.00 | 0.00 | 0.00 | 40 | 1010.2 |
| 20260508093036 | 11 | 182 | 4.8 | 9.7 | 0.00 | 0.00 | 0.00 | 41 | 1010.3 |
| 20260508091538 | 11 | 149 | 6.4 | 9.7 | 0.00 | 0.00 | 0.00 | 40 | 1010.5 |
| 20260508090031 | 11 | 149 | 4.8 | 12.9 | 0.00 | 0.00 | 0.00 | 39 | 1010.7 |
| 20260508084529 | 12 | 140 | 4.8 | 16.1 | 0.00 | 0.00 | 0.00 | 39 | 1010.8 |
| 20260508083028 | 11 | 158 | 4.8 | 11.3 | 0.00 | 0.00 | 0.00 | 39 | 1011.0 |
| 20260508081529 | 11 | 136 | 4.8 | 11.3 | 0.00 | 0.00 | 0.00 | 40 | 1011.1 |
| 20260508080022 | 11 | 120 | 6.4 | 9.7 | 0.00 | 0.00 | 0.00 | 40 | 1011.3 |
| 20260508074522 | 12 | 116 | 4.8 | 14.5 | 0.00 | 0.00 | 0.00 | 38 | 1011.4 |
| 20260508073018 | 13 | 116 | 6.4 | 17.7 | 0.00 | 0.00 | 0.00 | 36 | 1011.5 |
| 20260508071517 | 12 | 102 | 4.8 | 12.9 | 0.00 | 0.00 | 0.00 | 38 | 1011.7 |
| 20260508070016 | 13 | 105 | 6.4 | 14.5 | 0.00 | 0.00 | 0.00 | 36 | 1011.7 |
| 20260508064524 | 11 | 72 | 4.8 | 11.3 | 0.00 | 0.00 | 0.00 | 41 | 1011.8 |
| 20260508063012 | 11 | 139 | 4.8 | 11.3 | 0.00 | 0.00 | 0.00 | 42 | 1011.8 |
| 20260508061509 | 12 | 141 | 4.8 | 11.3 | 0.00 | 0.00 | 0.00 | 40 | 1011.9 |
| 20260508060007 | 13 | 139 | 4.8 | 9.7 | 0.00 | 0.00 | 0.00 | 38 | 1012.0 |
| 20260508054509 | 14 | 149 | 6.4 | 14.5 | 0.00 | 0.00 | 0.00 | 36 | 1012.0 |
| 20260508053004 | 13 | 167 | 4.8 | 9.7 | 0.00 | 0.00 | 0.00 | 38 | 1012.1 |
| 20260508051505 | 14 | 127 | 6.4 | 14.5 | 0.00 | 0.00 | 0.00 | 36 | 1012.1 |
| 20260508050002 | 12 | 99 | 4.8 | 14.5 | 0.00 | 0.00 | 0.00 | 38 | 1012.3 |
| 20260508044502 | 12 | 147 | 4.8 | 9.7 | 0.00 | 0.00 | 0.00 | 40 | 1012.3 |
| 20260508043003 | 11 | 123 | 1.6 | 9.7 | 0.00 | 0.00 | 0.00 | 42 | 1012.3 |
| 20260508041501 | 11 | 135 | 3.2 | 8.0 | 0.00 | 0.00 | 0.00 | 43 | 1012.2 |
| 20260508040100 | 11 | 170 | 3.2 | 6.4 | 0.00 | 0.00 | 0.00 | 43 | 1012.3 |
| 20260508034602 | 12 | 141 | 3.2 | 8.0 | 0.00 | 0.00 | 0.00 | 42 | 1012.2 |
| 20260508033103 | 12 | 125 | 3.2 | 8.0 | 0.00 | 0.00 | 0.00 | 43 | 1012.1 |
| 20260508031600 | 12 | 153 | 3.2 | 8.0 | 0.00 | 0.00 | 0.00 | 42 | 1011.8 |
| 20260508030058 | 12 | 150 | 3.2 | 6.4 | 0.00 | 0.00 | 0.00 | 40 | 1011.7 |
| 20260508024604 | 13 | 148 | 1.6 | 8.0 | 0.00 | 0.00 | 0.00 | 41 | 1011.7 |
| 20260508023058 | 13 | 148 | 1.6 | 4.8 | 0.00 | 0.00 | 0.00 | 41 | 1011.7 |
| 20260508021609 | 16 | 147 | 0.0 | 3.2 | 0.00 | 0.00 | 0.00 | 35 | 1011.5 |
| 20260508020058 | 18 | 290 | 0.0 | 1.6 | 0.00 | 0.00 | 0.00 | 28 | 1011.7 |
| 20260508014555 | 18 | 278 | 0.0 | 6.4 | 0.00 | 0.00 | 0.00 | 29 | 1011.5 |
| 20260508013054 | 20 | 261 | 1.6 | 6.4 | 0.00 | 0.00 | 0.00 | 27 | 1011.8 |
| 20260508011606 | 19 | 22 | 0.0 | 6.4 | 0.00 | 0.00 | 0.00 | 27 | 1011.8 |
| 20260508010050 | 19 | 4 | 3.2 | 9.7 | 0.00 | 0.00 | 0.00 | 28 | 1012.0 |
| 20260508004556 | 20 | 321 | 3.2 | 9.7 | 0.00 | 0.00 | 0.00 | 26 | 1012.0 |
| 20260508003048 | 20 | 265 | 6.4 | 17.7 | 0.00 | 0.00 | 0.00 | 27 | 1012.1 |
| 20260508001548 | 21 | 274 | 3.2 | 8.0 | 0.00 | 0.00 | 0.00 | 25 | 1012.3 |
| 20260508000045 | 19 | 255 | 3.2 | 9.7 | 0.00 | 0.00 | 0.00 | 28 | 1012.5 |
| 20260507234550 | 20 | 322 | 3.2 | 11.3 | 0.00 | 0.00 | 0.00 | 27 | 1012.8 |
| 20260507233042 | 21 | 300 | 4.8 | 12.9 | 0.00 | 0.00 | 0.00 | 26 | 1012.7 |
| 20260507231548 | 21 | 289 | 3.2 | 14.5 | 0.00 | 0.00 | 0.00 | 27 | 1012.8 |
| 20260507230039 | 20 | 249 | 6.4 | 17.7 | 0.00 | 0.00 | 0.00 | 27 | 1013.0 |
| 20260507224539 | 21 | 277 | 9.7 | 16.1 | 0.00 | 0.00 | 0.00 | 26 | 1013.0 |
| 20260507223135 | 21 | 155 | 4.8 | 22.5 | 0.00 | 0.00 | 0.00 | 27 | 1013.2 |
| 20260507221532 | 20 | 297 | 9.7 | 20.9 | 0.00 | 0.00 | 0.00 | 27 | 1013.5 |
| 20260507220030 | 20 | 269 | 9.7 | 17.7 | 0.00 | 0.00 | 0.00 | 26 | 1013.7 |
| 20260507214527 | 20 | 214 | 4.8 | 14.5 | 0.00 | 0.00 | 0.00 | 27 | 1014.0 |
| 20260507213024 | 20 | 293 | 9.7 | 17.7 | 0.00 | 0.00 | 0.00 | 26 | 1014.4 |
| 20260507211522 | 20 | 262 | 6.4 | 14.5 | 0.00 | 0.00 | 0.00 | 25 | 1014.7 |
| 20260507210020 | 20 | 275 | 1.6 | 14.5 | 0.00 | 0.00 | 0.00 | 26 | 1015.0 |
| 20260507204517 | 20 | 135 | 1.6 | 12.9 | 0.00 | 0.00 | 0.00 | 26 | 1015.3 |
| 20260507203016 | 19 | 331 | 3.2 | 14.5 | 0.00 | 0.00 | 0.00 | 24 | 1015.4 |
| 20260507201513 | 18 | 271 | 3.2 | 11.3 | 0.00 | 0.00 | 0.00 | 25 | 1016.1 |
| 20260507200011 | 18 | 231 | 3.2 | 16.1 | 0.00 | 0.00 | 0.00 | 26 | 1016.4 |
| 20260507194508 | 18 | 290 | 6.4 | 14.5 | 0.00 | 0.00 | 0.00 | 26 | 1016.7 |
| 20260507193005 | 18 | 297 | 3.2 | 14.5 | 0.00 | 0.00 | 0.00 | 26 | 1017.0 |
| 20260507191505 | 18 | 271 | 3.2 | 12.9 | 0.00 | 0.00 | 0.00 | 26 | 1016.9 |
| 20260507190003 | 17 | 297 | 4.8 | 11.3 | 0.00 | 0.00 | 0.00 | 27 | 1017.3 |
| 20260507184602 | 16 | 154 | 1.6 | 16.1 | 0.00 | 0.00 | 0.00 | 28 | 1017.4 |
| 20260507183057 | 17 | 316 | 4.8 | 14.5 | 0.00 | 0.00 | 0.00 | 28 | 1018.0 |
| 20260507181555 | 16 | 285 | 6.4 | 14.5 | 0.00 | 0.00 | 0.00 | 28 | 1018.3 |
| 20260507180052 | 16 | 259 | 1.6 | 17.7 | 0.00 | 0.00 | 0.00 | 30 | 1018.5 |
| 20260507174558 | 16 | 307 | 4.8 | 9.7 | 0.00 | 0.00 | 0.00 | 28 | 1019.0 |
| 20260507173048 | 15 | 264 | 1.6 | 11.3 | 0.00 | 0.00 | 0.00 | 30 | 1019.0 |
| 20260507171559 | 15 | 300 | 8.0 | 14.5 | 0.00 | 0.00 | 0.00 | 29 | 1019.4 |
| 20260507170047 | 15 | 307 | 8.0 | 12.9 | 0.00 | 0.00 | 0.00 | 31 | 1019.4 |
| 20260507164543 | 15 | 274 | 6.4 | 9.7 | 0.00 | 0.00 | 0.00 | 30 | 1019.6 |
| 20260507163041 | 13 | 350 | 4.8 | 17.7 | 0.00 | 0.00 | 0.00 | 31 | 1019.8 |
| 20260507161541 | 13 | 217 | 4.8 | 17.7 | 0.00 | 0.00 | 0.00 | 32 | 1019.9 |
| 20260507160044 | 13 | 295 | 3.2 | 11.3 | 0.00 | 0.00 | 0.00 | 32 | 1019.7 |
| 20260507154539 | 13 | 320 | 4.8 | 14.5 | 0.00 | 0.00 | 0.00 | 34 | 1020.0 |
| 20260507153038 | 13 | 274 | 0.0 | 8.0 | 0.00 | 0.00 | 0.00 | 34 | 1020.1 |